sensor_id;sensor_type;location;lat;lon;timestamp;P1;durP1;ratioP1;P2;durP2;ratioP2
78873;SDS011;68250;43.514;1.494;2023-04-19T00:00:29;5.50;;;2.37;;
78873;SDS011;68250;43.514;1.494;2023-04-19T00:02:55;5.78;;;2.30;;
78873;SDS011;68250;43.514;1.494;2023-04-19T00:05:21;5.57;;;2.20;;
78873;SDS011;68250;43.514;1.494;2023-04-19T00:07:48;5.13;;;2.47;;
78873;SDS011;68250;43.514;1.494;2023-04-19T00:10:14;6.28;;;2.15;;
78873;SDS011;68250;43.514;1.494;2023-04-19T00:12:39;6.13;;;2.07;;
78873;SDS011;68250;43.514;1.494;2023-04-19T00:15:05;5.05;;;2.20;;
78873;SDS011;68250;43.514;1.494;2023-04-19T00:17:32;5.13;;;2.20;;
78873;SDS011;68250;43.514;1.494;2023-04-19T00:19:57;4.80;;;2.00;;
78873;SDS011;68250;43.514;1.494;2023-04-19T00:22:23;5.05;;;2.30;;
78873;SDS011;68250;43.514;1.494;2023-04-19T00:24:48;4.90;;;2.00;;
78873;SDS011;68250;43.514;1.494;2023-04-19T00:27:14;4.67;;;2.37;;
78873;SDS011;68250;43.514;1.494;2023-04-19T00:29:39;4.90;;;2.20;;
78873;SDS011;68250;43.514;1.494;2023-04-19T00:32:05;5.73;;;2.20;;
78873;SDS011;68250;43.514;1.494;2023-04-19T00:34:31;5.00;;;2.00;;
78873;SDS011;68250;43.514;1.494;2023-04-19T00:36:56;5.13;;;2.20;;
78873;SDS011;68250;43.514;1.494;2023-04-19T00:39:22;6.10;;;2.30;;
78873;SDS011;68250;43.514;1.494;2023-04-19T00:41:48;4.80;;;2.13;;
78873;SDS011;68250;43.514;1.494;2023-04-19T00:44:13;8.17;;;2.00;;
78873;SDS011;68250;43.514;1.494;2023-04-19T00:46:39;5.83;;;2.10;;
78873;SDS011;68250;43.514;1.494;2023-04-19T00:49:05;6.47;;;2.10;;
78873;SDS011;68250;43.514;1.494;2023-04-19T00:51:30;6.65;;;2.17;;
78873;SDS011;68250;43.514;1.494;2023-04-19T00:53:56;4.60;;;2.03;;
78873;SDS011;68250;43.514;1.494;2023-04-19T00:56:21;6.27;;;2.17;;
78873;SDS011;68250;43.514;1.494;2023-04-19T00:58:48;7.60;;;2.40;;
78873;SDS011;68250;43.514;1.494;2023-04-19T01:01:13;7.57;;;2.40;;
78873;SDS011;68250;43.514;1.494;2023-04-19T01:03:39;6.57;;;2.35;;
78873;SDS011;68250;43.514;1.494;2023-04-19T01:06:05;4.97;;;2.50;;
78873;SDS011;68250;43.514;1.494;2023-04-19T01:08:30;8.23;;;2.35;;
78873;SDS011;68250;43.514;1.494;2023-04-19T01:10:56;5.90;;;2.17;;
78873;SDS011;68250;43.514;1.494;2023-04-19T01:13:21;4.70;;;2.30;;
78873;SDS011;68250;43.514;1.494;2023-04-19T01:15:47;6.20;;;2.42;;
78873;SDS011;68250;43.514;1.494;2023-04-19T01:18:12;6.77;;;2.60;;
78873;SDS011;68250;43.514;1.494;2023-04-19T01:20:38;7.57;;;2.47;;
78873;SDS011;68250;43.514;1.494;2023-04-19T01:23:04;5.65;;;2.42;;
78873;SDS011;68250;43.514;1.494;2023-04-19T01:25:30;5.85;;;2.58;;
78873;SDS011;68250;43.514;1.494;2023-04-19T01:27:55;4.68;;;2.40;;
78873;SDS011;68250;43.514;1.494;2023-04-19T01:30:21;8.40;;;3.00;;
78873;SDS011;68250;43.514;1.494;2023-04-19T01:32:46;6.63;;;2.37;;
78873;SDS011;68250;43.514;1.494;2023-04-19T01:35:12;5.43;;;2.40;;
78873;SDS011;68250;43.514;1.494;2023-04-19T01:37:37;5.43;;;2.60;;
78873;SDS011;68250;43.514;1.494;2023-04-19T01:40:03;5.53;;;2.40;;
78873;SDS011;68250;43.514;1.494;2023-04-19T01:42:29;7.45;;;2.72;;
78873;SDS011;68250;43.514;1.494;2023-04-19T01:44:55;6.30;;;2.70;;
78873;SDS011;68250;43.514;1.494;2023-04-19T01:47:21;6.17;;;2.67;;
78873;SDS011;68250;43.514;1.494;2023-04-19T01:49:47;5.72;;;2.70;;
78873;SDS011;68250;43.514;1.494;2023-04-19T01:52:13;7.93;;;2.60;;
78873;SDS011;68250;43.514;1.494;2023-04-19T01:54:38;6.60;;;2.80;;
78873;SDS011;68250;43.514;1.494;2023-04-19T01:57:04;7.00;;;3.10;;
78873;SDS011;68250;43.514;1.494;2023-04-19T01:59:29;7.13;;;3.20;;
78873;SDS011;68250;43.514;1.494;2023-04-19T02:01:55;6.57;;;3.00;;
78873;SDS011;68250;43.514;1.494;2023-04-19T02:04:20;5.03;;;2.78;;
78873;SDS011;68250;43.514;1.494;2023-04-19T02:06:46;6.33;;;2.90;;
78873;SDS011;68250;43.514;1.494;2023-04-19T02:09:11;7.87;;;3.10;;
78873;SDS011;68250;43.514;1.494;2023-04-19T02:11:37;7.43;;;2.85;;
78873;SDS011;68250;43.514;1.494;2023-04-19T02:14:03;6.80;;;3.10;;
78873;SDS011;68250;43.514;1.494;2023-04-19T02:16:28;7.30;;;2.60;;
78873;SDS011;68250;43.514;1.494;2023-04-19T02:18:54;5.55;;;2.50;;
78873;SDS011;68250;43.514;1.494;2023-04-19T02:21:19;6.50;;;3.00;;
78873;SDS011;68250;43.514;1.494;2023-04-19T02:23:45;6.45;;;2.83;;
78873;SDS011;68250;43.514;1.494;2023-04-19T02:26:10;6.40;;;3.07;;
78873;SDS011;68250;43.514;1.494;2023-04-19T02:28:37;5.65;;;2.90;;
78873;SDS011;68250;43.514;1.494;2023-04-19T02:31:04;5.73;;;2.90;;
78873;SDS011;68250;43.514;1.494;2023-04-19T02:33:30;6.05;;;2.80;;
78873;SDS011;68250;43.514;1.494;2023-04-19T02:35:55;5.72;;;2.85;;
78873;SDS011;68250;43.514;1.494;2023-04-19T02:38:21;6.67;;;3.13;;
78873;SDS011;68250;43.514;1.494;2023-04-19T02:40:46;7.33;;;3.30;;
78873;SDS011;68250;43.514;1.494;2023-04-19T02:43:12;8.13;;;3.05;;
78873;SDS011;68250;43.514;1.494;2023-04-19T02:45:38;5.47;;;2.93;;
78873;SDS011;68250;43.514;1.494;2023-04-19T02:48:03;8.60;;;3.50;;
78873;SDS011;68250;43.514;1.494;2023-04-19T02:50:29;7.90;;;3.33;;
78873;SDS011;68250;43.514;1.494;2023-04-19T02:52:56;6.05;;;3.03;;
78873;SDS011;68250;43.514;1.494;2023-04-19T02:55:22;7.57;;;3.20;;
78873;SDS011;68250;43.514;1.494;2023-04-19T02:57:47;7.33;;;3.10;;
78873;SDS011;68250;43.514;1.494;2023-04-19T03:00:13;6.43;;;3.35;;
78873;SDS011;68250;43.514;1.494;2023-04-19T03:02:40;6.60;;;3.10;;
78873;SDS011;68250;43.514;1.494;2023-04-19T03:05:07;6.43;;;3.08;;
78873;SDS011;68250;43.514;1.494;2023-04-19T03:07:33;6.18;;;2.83;;
78873;SDS011;68250;43.514;1.494;2023-04-19T03:09:59;5.43;;;2.70;;
78873;SDS011;68250;43.514;1.494;2023-04-19T03:12:25;6.17;;;2.87;;
78873;SDS011;68250;43.514;1.494;2023-04-19T03:14:50;6.07;;;3.17;;
78873;SDS011;68250;43.514;1.494;2023-04-19T03:17:16;6.13;;;2.90;;
78873;SDS011;68250;43.514;1.494;2023-04-19T03:19:41;6.53;;;3.20;;
78873;SDS011;68250;43.514;1.494;2023-04-19T03:22:07;6.77;;;2.93;;
78873;SDS011;68250;43.514;1.494;2023-04-19T03:24:32;7.60;;;3.30;;
78873;SDS011;68250;43.514;1.494;2023-04-19T03:26:58;6.47;;;3.10;;
78873;SDS011;68250;43.514;1.494;2023-04-19T03:29:23;6.97;;;3.30;;
78873;SDS011;68250;43.514;1.494;2023-04-19T03:31:49;7.15;;;3.22;;
78873;SDS011;68250;43.514;1.494;2023-04-19T03:34:14;7.22;;;3.17;;
78873;SDS011;68250;43.514;1.494;2023-04-19T03:36:40;5.27;;;2.60;;
78873;SDS011;68250;43.514;1.494;2023-04-19T03:39:06;6.82;;;3.00;;
78873;SDS011;68250;43.514;1.494;2023-04-19T03:41:32;6.83;;;3.30;;
78873;SDS011;68250;43.514;1.494;2023-04-19T03:43:58;6.97;;;3.28;;
78873;SDS011;68250;43.514;1.494;2023-04-19T03:46:23;8.73;;;2.95;;
78873;SDS011;68250;43.514;1.494;2023-04-19T03:48:49;7.82;;;3.60;;
78873;SDS011;68250;43.514;1.494;2023-04-19T03:51:15;6.03;;;3.10;;
78873;SDS011;68250;43.514;1.494;2023-04-19T03:53:41;7.63;;;3.60;;
78873;SDS011;68250;43.514;1.494;2023-04-19T03:56:06;7.90;;;3.58;;
78873;SDS011;68250;43.514;1.494;2023-04-19T03:58:32;8.60;;;4.00;;
78873;SDS011;68250;43.514;1.494;2023-04-19T04:00:58;8.48;;;4.07;;
78873;SDS011;68250;43.514;1.494;2023-04-19T04:03:24;9.50;;;4.15;;
78873;SDS011;68250;43.514;1.494;2023-04-19T04:05:49;7.70;;;3.90;;
78873;SDS011;68250;43.514;1.494;2023-04-19T04:08:15;8.67;;;4.53;;
78873;SDS011;68250;43.514;1.494;2023-04-19T04:10:41;10.23;;;4.70;;
78873;SDS011;68250;43.514;1.494;2023-04-19T04:13:06;10.03;;;4.30;;
78873;SDS011;68250;43.514;1.494;2023-04-19T04:15:32;8.70;;;4.43;;
78873;SDS011;68250;43.514;1.494;2023-04-19T04:17:57;8.90;;;4.40;;
78873;SDS011;68250;43.514;1.494;2023-04-19T04:20:23;10.35;;;4.97;;
78873;SDS011;68250;43.514;1.494;2023-04-19T04:22:48;8.93;;;4.93;;
78873;SDS011;68250;43.514;1.494;2023-04-19T04:25:14;10.60;;;5.00;;
78873;SDS011;68250;43.514;1.494;2023-04-19T04:27:40;8.63;;;4.60;;
78873;SDS011;68250;43.514;1.494;2023-04-19T04:30:08;10.23;;;4.72;;
78873;SDS011;68250;43.514;1.494;2023-04-19T04:32:34;11.27;;;5.00;;
78873;SDS011;68250;43.514;1.494;2023-04-19T04:35:03;9.30;;;5.10;;
78873;SDS011;68250;43.514;1.494;2023-04-19T04:37:32;10.48;;;5.20;;
78873;SDS011;68250;43.514;1.494;2023-04-19T04:40:01;9.43;;;4.97;;
78873;SDS011;68250;43.514;1.494;2023-04-19T04:42:29;10.27;;;5.00;;
78873;SDS011;68250;43.514;1.494;2023-04-19T04:44:55;9.27;;;4.80;;
78873;SDS011;68250;43.514;1.494;2023-04-19T04:47:22;11.35;;;5.57;;
78873;SDS011;68250;43.514;1.494;2023-04-19T04:49:48;11.60;;;5.13;;
78873;SDS011;68250;43.514;1.494;2023-04-19T04:52:13;9.70;;;5.05;;
78873;SDS011;68250;43.514;1.494;2023-04-19T04:54:39;10.60;;;5.28;;
78873;SDS011;68250;43.514;1.494;2023-04-19T04:57:05;10.27;;;5.20;;
78873;SDS011;68250;43.514;1.494;2023-04-19T04:59:30;9.57;;;5.13;;
78873;SDS011;68250;43.514;1.494;2023-04-19T05:01:56;8.63;;;5.30;;
78873;SDS011;68250;43.514;1.494;2023-04-19T05:04:21;10.38;;;5.05;;
78873;SDS011;68250;43.514;1.494;2023-04-19T05:06:47;12.30;;;5.50;;
78873;SDS011;68250;43.514;1.494;2023-04-19T05:09:12;11.80;;;5.60;;
78873;SDS011;68250;43.514;1.494;2023-04-19T05:11:38;10.60;;;5.22;;
78873;SDS011;68250;43.514;1.494;2023-04-19T05:14:03;10.60;;;5.60;;
78873;SDS011;68250;43.514;1.494;2023-04-19T05:16:29;12.10;;;5.70;;
78873;SDS011;68250;43.514;1.494;2023-04-19T05:18:55;13.40;;;5.80;;
78873;SDS011;68250;43.514;1.494;2023-04-19T05:21:20;10.63;;;5.60;;
78873;SDS011;68250;43.514;1.494;2023-04-19T05:23:46;11.90;;;5.53;;
78873;SDS011;68250;43.514;1.494;2023-04-19T05:26:13;9.53;;;5.27;;
78873;SDS011;68250;43.514;1.494;2023-04-19T05:28:39;11.10;;;5.50;;
78873;SDS011;68250;43.514;1.494;2023-04-19T05:31:06;11.40;;;5.85;;
78873;SDS011;68250;43.514;1.494;2023-04-19T05:33:32;10.82;;;5.53;;
78873;SDS011;68250;43.514;1.494;2023-04-19T05:35:58;10.67;;;5.67;;
78873;SDS011;68250;43.514;1.494;2023-04-19T05:38:23;11.50;;;5.80;;
78873;SDS011;68250;43.514;1.494;2023-04-19T05:40:49;11.52;;;6.13;;
78873;SDS011;68250;43.514;1.494;2023-04-19T05:43:14;12.97;;;5.80;;
78873;SDS011;68250;43.514;1.494;2023-04-19T05:45:40;10.10;;;5.80;;
78873;SDS011;68250;43.514;1.494;2023-04-19T05:48:05;11.55;;;6.28;;
78873;SDS011;68250;43.514;1.494;2023-04-19T05:50:31;11.65;;;6.22;;
78873;SDS011;68250;43.514;1.494;2023-04-19T05:52:56;10.47;;;5.80;;
78873;SDS011;68250;43.514;1.494;2023-04-19T05:55:22;14.13;;;6.38;;
78873;SDS011;68250;43.514;1.494;2023-04-19T05:57:48;10.33;;;6.23;;
78873;SDS011;68250;43.514;1.494;2023-04-19T06:00:14;11.23;;;5.90;;
78873;SDS011;68250;43.514;1.494;2023-04-19T06:02:40;10.83;;;5.80;;
78873;SDS011;68250;43.514;1.494;2023-04-19T06:05:05;14.57;;;7.50;;
78873;SDS011;68250;43.514;1.494;2023-04-19T06:07:31;12.67;;;6.27;;
78873;SDS011;68250;43.514;1.494;2023-04-19T06:09:57;12.05;;;7.20;;
78873;SDS011;68250;43.514;1.494;2023-04-19T06:12:22;16.03;;;7.20;;
78873;SDS011;68250;43.514;1.494;2023-04-19T06:14:48;10.20;;;5.83;;
78873;SDS011;68250;43.514;1.494;2023-04-19T06:17:13;11.93;;;6.00;;
78873;SDS011;68250;43.514;1.494;2023-04-19T06:19:41;12.35;;;5.40;;
78873;SDS011;68250;43.514;1.494;2023-04-19T06:22:06;12.43;;;5.95;;
78873;SDS011;68250;43.514;1.494;2023-04-19T06:24:32;10.97;;;5.80;;
78873;SDS011;68250;43.514;1.494;2023-04-19T06:26:57;9.77;;;5.30;;
78873;SDS011;68250;43.514;1.494;2023-04-19T06:29:23;11.20;;;5.57;;
78873;SDS011;68250;43.514;1.494;2023-04-19T06:31:49;12.35;;;5.60;;
78873;SDS011;68250;43.514;1.494;2023-04-19T06:34:15;14.80;;;5.87;;
78873;SDS011;68250;43.514;1.494;2023-04-19T06:36:40;11.02;;;5.43;;
78873;SDS011;68250;43.514;1.494;2023-04-19T06:39:06;12.17;;;5.80;;
78873;SDS011;68250;43.514;1.494;2023-04-19T06:41:32;13.00;;;6.10;;
78873;SDS011;68250;43.514;1.494;2023-04-19T06:43:57;13.23;;;6.03;;
78873;SDS011;68250;43.514;1.494;2023-04-19T06:46:23;11.67;;;6.27;;
78873;SDS011;68250;43.514;1.494;2023-04-19T06:48:48;14.70;;;6.10;;
78873;SDS011;68250;43.514;1.494;2023-04-19T06:51:14;10.40;;;5.47;;
78873;SDS011;68250;43.514;1.494;2023-04-19T06:53:40;12.70;;;6.10;;
78873;SDS011;68250;43.514;1.494;2023-04-19T06:56:05;11.02;;;5.85;;
78873;SDS011;68250;43.514;1.494;2023-04-19T06:58:31;10.73;;;5.40;;
78873;SDS011;68250;43.514;1.494;2023-04-19T07:00:57;9.82;;;5.35;;
78873;SDS011;68250;43.514;1.494;2023-04-19T07:03:24;11.13;;;5.10;;
78873;SDS011;68250;43.514;1.494;2023-04-19T07:05:49;9.70;;;4.87;;
78873;SDS011;68250;43.514;1.494;2023-04-19T07:08:16;9.52;;;5.40;;
78873;SDS011;68250;43.514;1.494;2023-04-19T07:10:42;12.37;;;5.47;;
78873;SDS011;68250;43.514;1.494;2023-04-19T07:13:09;9.98;;;4.75;;
78873;SDS011;68250;43.514;1.494;2023-04-19T07:15:35;8.48;;;4.70;;
78873;SDS011;68250;43.514;1.494;2023-04-19T07:18:01;10.47;;;4.63;;
78873;SDS011;68250;43.514;1.494;2023-04-19T07:20:26;10.30;;;4.68;;
78873;SDS011;68250;43.514;1.494;2023-04-19T07:22:52;8.65;;;4.45;;
78873;SDS011;68250;43.514;1.494;2023-04-19T07:25:17;8.37;;;4.40;;
78873;SDS011;68250;43.514;1.494;2023-04-19T07:27:43;13.07;;;4.57;;
78873;SDS011;68250;43.514;1.494;2023-04-19T07:30:08;10.77;;;4.97;;
78873;SDS011;68250;43.514;1.494;2023-04-19T07:32:35;10.23;;;4.50;;
78873;SDS011;68250;43.514;1.494;2023-04-19T07:35:00;9.48;;;4.50;;
78873;SDS011;68250;43.514;1.494;2023-04-19T07:37:26;9.50;;;4.57;;
78873;SDS011;68250;43.514;1.494;2023-04-19T07:39:52;9.38;;;4.65;;
78873;SDS011;68250;43.514;1.494;2023-04-19T07:42:18;8.43;;;4.37;;
78873;SDS011;68250;43.514;1.494;2023-04-19T07:44:43;8.35;;;4.60;;
78873;SDS011;68250;43.514;1.494;2023-04-19T07:47:09;10.10;;;4.90;;
78873;SDS011;68250;43.514;1.494;2023-04-19T07:49:34;8.20;;;4.50;;
78873;SDS011;68250;43.514;1.494;2023-04-19T07:52:01;10.20;;;4.63;;
78873;SDS011;68250;43.514;1.494;2023-04-19T07:54:27;8.82;;;4.22;;
78873;SDS011;68250;43.514;1.494;2023-04-19T07:56:53;9.82;;;4.30;;
78873;SDS011;68250;43.514;1.494;2023-04-19T07:59:18;9.00;;;4.00;;
78873;SDS011;68250;43.514;1.494;2023-04-19T08:01:44;7.20;;;3.70;;
78873;SDS011;68250;43.514;1.494;2023-04-19T08:04:09;7.30;;;4.00;;
78873;SDS011;68250;43.514;1.494;2023-04-19T08:06:36;9.37;;;3.87;;
78873;SDS011;68250;43.514;1.494;2023-04-19T08:09:02;6.95;;;3.70;;
78873;SDS011;68250;43.514;1.494;2023-04-19T08:11:28;7.38;;;3.60;;
78873;SDS011;68250;43.514;1.494;2023-04-19T08:13:53;6.83;;;3.73;;
78873;SDS011;68250;43.514;1.494;2023-04-19T08:16:19;8.60;;;3.47;;
78873;SDS011;68250;43.514;1.494;2023-04-19T08:18:45;8.40;;;3.37;;
78873;SDS011;68250;43.514;1.494;2023-04-19T08:21:10;8.37;;;3.80;;
78873;SDS011;68250;43.514;1.494;2023-04-19T08:23:36;7.75;;;3.42;;
78873;SDS011;68250;43.514;1.494;2023-04-19T08:26:01;7.93;;;3.37;;
78873;SDS011;68250;43.514;1.494;2023-04-19T08:28:27;8.77;;;3.25;;
78873;SDS011;68250;43.514;1.494;2023-04-19T08:30:53;6.97;;;3.20;;
78873;SDS011;68250;43.514;1.494;2023-04-19T08:33:19;7.85;;;3.47;;
78873;SDS011;68250;43.514;1.494;2023-04-19T08:35:44;7.63;;;3.10;;
78873;SDS011;68250;43.514;1.494;2023-04-19T08:38:10;5.93;;;2.73;;
78873;SDS011;68250;43.514;1.494;2023-04-19T08:40:37;6.82;;;2.90;;
78873;SDS011;68250;43.514;1.494;2023-04-19T08:43:05;6.85;;;2.97;;
78873;SDS011;68250;43.514;1.494;2023-04-19T08:45:31;6.37;;;2.73;;
78873;SDS011;68250;43.514;1.494;2023-04-19T08:47:57;7.20;;;2.60;;
78873;SDS011;68250;43.514;1.494;2023-04-19T08:50:22;7.68;;;2.90;;
78873;SDS011;68250;43.514;1.494;2023-04-19T08:52:48;8.57;;;2.83;;
78873;SDS011;68250;43.514;1.494;2023-04-19T08:55:14;6.93;;;2.83;;
78873;SDS011;68250;43.514;1.494;2023-04-19T08:57:39;5.53;;;2.83;;
78873;SDS011;68250;43.514;1.494;2023-04-19T09:00:07;10.13;;;3.10;;
78873;SDS011;68250;43.514;1.494;2023-04-19T09:02:49;6.00;;;3.05;;
78873;SDS011;68250;43.514;1.494;2023-04-19T09:05:16;8.73;;;3.08;;
78873;SDS011;68250;43.514;1.494;2023-04-19T09:07:43;6.45;;;2.58;;
78873;SDS011;68250;43.514;1.494;2023-04-19T09:10:11;6.72;;;2.70;;
78873;SDS011;68250;43.514;1.494;2023-04-19T09:12:40;6.95;;;2.60;;
78873;SDS011;68250;43.514;1.494;2023-04-19T09:15:07;5.80;;;2.60;;
78873;SDS011;68250;43.514;1.494;2023-04-19T09:17:34;7.22;;;2.95;;
78873;SDS011;68250;43.514;1.494;2023-04-19T09:20:00;8.38;;;3.10;;
78873;SDS011;68250;43.514;1.494;2023-04-19T09:22:26;6.07;;;2.88;;
78873;SDS011;68250;43.514;1.494;2023-04-19T09:24:52;7.93;;;2.60;;
78873;SDS011;68250;43.514;1.494;2023-04-19T09:27:27;6.47;;;2.75;;
78873;SDS011;68250;43.514;1.494;2023-04-19T09:29:55;8.10;;;2.90;;
78873;SDS011;68250;43.514;1.494;2023-04-19T09:32:22;5.82;;;2.70;;
78873;SDS011;68250;43.514;1.494;2023-04-19T09:34:52;5.13;;;2.70;;
78873;SDS011;68250;43.514;1.494;2023-04-19T09:37:21;7.13;;;2.88;;
78873;SDS011;68250;43.514;1.494;2023-04-19T09:39:47;7.28;;;2.72;;
78873;SDS011;68250;43.514;1.494;2023-04-19T09:42:13;5.10;;;2.50;;
78873;SDS011;68250;43.514;1.494;2023-04-19T09:44:38;7.32;;;2.58;;
78873;SDS011;68250;43.514;1.494;2023-04-19T09:47:23;8.20;;;2.60;;
78873;SDS011;68250;43.514;1.494;2023-04-19T09:50:02;8.45;;;2.60;;
78873;SDS011;68250;43.514;1.494;2023-04-19T09:52:31;7.40;;;3.10;;
78873;SDS011;68250;43.514;1.494;2023-04-19T09:54:57;6.37;;;2.70;;
78873;SDS011;68250;43.514;1.494;2023-04-19T09:57:25;7.00;;;2.60;;
78873;SDS011;68250;43.514;1.494;2023-04-19T09:59:51;7.60;;;2.60;;
78873;SDS011;68250;43.514;1.494;2023-04-19T10:02:16;8.85;;;2.55;;
78873;SDS011;68250;43.514;1.494;2023-04-19T10:04:43;5.68;;;2.70;;
78873;SDS011;68250;43.514;1.494;2023-04-19T10:07:08;6.57;;;2.40;;
78873;SDS011;68250;43.514;1.494;2023-04-19T10:09:34;5.00;;;2.30;;
78873;SDS011;68250;43.514;1.494;2023-04-19T10:12:00;5.93;;;2.58;;
78873;SDS011;68250;43.514;1.494;2023-04-19T10:14:27;5.72;;;2.08;;
78873;SDS011;68250;43.514;1.494;2023-04-19T10:16:55;5.32;;;2.20;;
78873;SDS011;68250;43.514;1.494;2023-04-19T10:19:21;7.78;;;2.42;;
78873;SDS011;68250;43.514;1.494;2023-04-19T10:21:47;6.23;;;2.30;;
78873;SDS011;68250;43.514;1.494;2023-04-19T10:24:13;4.85;;;2.20;;
78873;SDS011;68250;43.514;1.494;2023-04-19T10:32:26;7.28;;;2.30;;
78873;SDS011;68250;43.514;1.494;2023-04-19T10:35:02;4.90;;;1.80;;
78873;SDS011;68250;43.514;1.494;2023-04-19T10:37:37;4.90;;;1.88;;
78873;SDS011;68250;43.514;1.494;2023-04-19T10:40:04;4.65;;;1.75;;
78873;SDS011;68250;43.514;1.494;2023-04-19T10:43:13;7.22;;;1.98;;
78873;SDS011;68250;43.514;1.494;2023-04-19T10:45:35;6.55;;;2.08;;
78873;SDS011;68250;43.514;1.494;2023-04-19T10:48:03;4.80;;;1.90;;
78873;SDS011;68250;43.514;1.494;2023-04-19T10:50:29;4.70;;;1.67;;
78873;SDS011;68250;43.514;1.494;2023-04-19T10:52:55;4.27;;;1.63;;
78873;SDS011;68250;43.514;1.494;2023-04-19T10:55:20;5.95;;;1.80;;
78873;SDS011;68250;43.514;1.494;2023-04-19T10:58:19;7.33;;;1.90;;
78873;SDS011;68250;43.514;1.494;2023-04-19T11:00:37;6.53;;;1.88;;
78873;SDS011;68250;43.514;1.494;2023-04-19T11:06:14;5.05;;;1.80;;
78873;SDS011;68250;43.514;1.494;2023-04-19T11:08:42;7.18;;;1.73;;
78873;SDS011;68250;43.514;1.494;2023-04-19T11:11:09;7.18;;;1.70;;
78873;SDS011;68250;43.514;1.494;2023-04-19T11:13:35;4.53;;;1.60;;
78873;SDS011;68250;43.514;1.494;2023-04-19T11:16:06;4.03;;;1.55;;
78873;SDS011;68250;43.514;1.494;2023-04-19T11:18:32;4.32;;;1.60;;
78873;SDS011;68250;43.514;1.494;2023-04-19T11:20:58;3.77;;;1.50;;
78873;SDS011;68250;43.514;1.494;2023-04-19T11:23:25;5.32;;;1.70;;
78873;SDS011;68250;43.514;1.494;2023-04-19T11:25:50;4.07;;;1.67;;
78873;SDS011;68250;43.514;1.494;2023-04-19T11:28:17;6.43;;;1.57;;
78873;SDS011;68250;43.514;1.494;2023-04-19T11:30:43;7.55;;;1.70;;
78873;SDS011;68250;43.514;1.494;2023-04-19T11:33:09;5.17;;;1.67;;
78873;SDS011;68250;43.514;1.494;2023-04-19T11:35:36;5.53;;;1.70;;
78873;SDS011;68250;43.514;1.494;2023-04-19T11:38:02;6.72;;;1.50;;
78873;SDS011;68250;43.514;1.494;2023-04-19T11:40:29;5.95;;;1.60;;
78873;SDS011;68250;43.514;1.494;2023-04-19T11:42:56;5.47;;;1.50;;
78873;SDS011;68250;43.514;1.494;2023-04-19T11:45:28;7.15;;;1.48;;
78873;SDS011;68250;43.514;1.494;2023-04-19T11:47:55;4.30;;;1.30;;
78873;SDS011;68250;43.514;1.494;2023-04-19T11:52:56;4.30;;;1.40;;
78873;SDS011;68250;43.514;1.494;2023-04-19T11:55:22;4.83;;;1.50;;
78873;SDS011;68250;43.514;1.494;2023-04-19T11:57:48;5.47;;;1.40;;
78873;SDS011;68250;43.514;1.494;2023-04-19T12:00:14;5.97;;;1.50;;
78873;SDS011;68250;43.514;1.494;2023-04-19T12:02:43;5.05;;;1.30;;
78873;SDS011;68250;43.514;1.494;2023-04-19T12:05:13;4.95;;;1.50;;
78873;SDS011;68250;43.514;1.494;2023-04-19T12:07:58;4.20;;;1.33;;
78873;SDS011;68250;43.514;1.494;2023-04-19T12:10:28;3.38;;;1.15;;
78873;SDS011;68250;43.514;1.494;2023-04-19T12:12:55;5.82;;;1.40;;
78873;SDS011;68250;43.514;1.494;2023-04-19T12:15:20;4.57;;;1.20;;
78873;SDS011;68250;43.514;1.494;2023-04-19T12:17:56;3.60;;;1.20;;
78873;SDS011;68250;43.514;1.494;2023-04-19T12:20:35;5.05;;;1.45;;
78873;SDS011;68250;43.514;1.494;2023-04-19T12:23:01;4.97;;;1.60;;
78873;SDS011;68250;43.514;1.494;2023-04-19T12:25:28;4.10;;;1.30;;
78873;SDS011;68250;43.514;1.494;2023-04-19T12:27:54;4.18;;;1.30;;
78873;SDS011;68250;43.514;1.494;2023-04-19T12:30:20;4.78;;;1.30;;
78873;SDS011;68250;43.514;1.494;2023-04-19T12:32:45;5.63;;;1.47;;
78873;SDS011;68250;43.514;1.494;2023-04-19T12:35:11;3.83;;;1.23;;
78873;SDS011;68250;43.514;1.494;2023-04-19T12:37:36;5.20;;;1.40;;
78873;SDS011;68250;43.514;1.494;2023-04-19T12:40:02;6.30;;;1.20;;
78873;SDS011;68250;43.514;1.494;2023-04-19T12:42:28;4.85;;;1.42;;
78873;SDS011;68250;43.514;1.494;2023-04-19T12:44:53;3.80;;;1.47;;
78873;SDS011;68250;43.514;1.494;2023-04-19T12:47:19;6.93;;;1.73;;
78873;SDS011;68250;43.514;1.494;2023-04-19T12:53:01;5.72;;;1.17;;
78873;SDS011;68250;43.514;1.494;2023-04-19T12:55:27;3.87;;;1.07;;
78873;SDS011;68250;43.514;1.494;2023-04-19T12:57:52;3.60;;;1.13;;
78873;SDS011;68250;43.514;1.494;2023-04-19T13:00:18;3.40;;;1.10;;
78873;SDS011;68250;43.514;1.494;2023-04-19T13:02:43;4.30;;;1.10;;
78873;SDS011;68250;43.514;1.494;2023-04-19T13:05:09;3.73;;;1.20;;
78873;SDS011;68250;43.514;1.494;2023-04-19T13:07:36;5.20;;;0.95;;
78873;SDS011;68250;43.514;1.494;2023-04-19T13:10:02;6.00;;;1.30;;
78873;SDS011;68250;43.514;1.494;2023-04-19T13:12:28;3.67;;;1.20;;
78873;SDS011;68250;43.514;1.494;2023-04-19T13:14:53;5.97;;;1.40;;
78873;SDS011;68250;43.514;1.494;2023-04-19T13:17:19;5.85;;;1.20;;
78873;SDS011;68250;43.514;1.494;2023-04-19T13:19:45;3.40;;;1.20;;
78873;SDS011;68250;43.514;1.494;2023-04-19T13:22:11;3.60;;;1.10;;
78873;SDS011;68250;43.514;1.494;2023-04-19T13:24:39;4.78;;;0.90;;
78873;SDS011;68250;43.514;1.494;2023-04-19T13:27:05;4.43;;;1.10;;
78873;SDS011;68250;43.514;1.494;2023-04-19T13:29:30;3.77;;;1.17;;
78873;SDS011;68250;43.514;1.494;2023-04-19T13:31:56;5.05;;;1.05;;
78873;SDS011;68250;43.514;1.494;2023-04-19T13:34:22;6.47;;;1.07;;
78873;SDS011;68250;43.514;1.494;2023-04-19T13:36:47;4.47;;;1.40;;
78873;SDS011;68250;43.514;1.494;2023-04-19T13:39:13;4.18;;;1.05;;
78873;SDS011;68250;43.514;1.494;2023-04-19T13:41:38;5.23;;;1.30;;
78873;SDS011;68250;43.514;1.494;2023-04-19T13:44:04;5.43;;;1.20;;
78873;SDS011;68250;43.514;1.494;2023-04-19T13:46:29;3.63;;;1.27;;
78873;SDS011;68250;43.514;1.494;2023-04-19T13:48:55;4.87;;;1.50;;
78873;SDS011;68250;43.514;1.494;2023-04-19T13:51:21;3.72;;;1.10;;
78873;SDS011;68250;43.514;1.494;2023-04-19T13:53:46;4.00;;;1.13;;
78873;SDS011;68250;43.514;1.494;2023-04-19T13:56:12;4.67;;;1.20;;
78873;SDS011;68250;43.514;1.494;2023-04-19T13:58:37;4.93;;;1.20;;
78873;SDS011;68250;43.514;1.494;2023-04-19T14:01:03;3.30;;;1.30;;
78873;SDS011;68250;43.514;1.494;2023-04-19T14:03:29;4.60;;;0.90;;
78873;SDS011;68250;43.514;1.494;2023-04-19T14:05:55;4.45;;;1.23;;
78873;SDS011;68250;43.514;1.494;2023-04-19T14:08:20;5.60;;;1.20;;
78873;SDS011;68250;43.514;1.494;2023-04-19T14:10:46;6.37;;;1.10;;
78873;SDS011;68250;43.514;1.494;2023-04-19T14:13:12;4.38;;;1.30;;
78873;SDS011;68250;43.514;1.494;2023-04-19T14:15:38;3.00;;;1.10;;
78873;SDS011;68250;43.514;1.494;2023-04-19T14:18:03;3.63;;;1.00;;
78873;SDS011;68250;43.514;1.494;2023-04-19T14:20:29;4.13;;;1.17;;
78873;SDS011;68250;43.514;1.494;2023-04-19T14:22:54;4.37;;;1.13;;
78873;SDS011;68250;43.514;1.494;2023-04-19T14:25:22;4.55;;;1.10;;
78873;SDS011;68250;43.514;1.494;2023-04-19T14:27:48;4.65;;;1.20;;
78873;SDS011;68250;43.514;1.494;2023-04-19T14:30:14;3.83;;;1.10;;
78873;SDS011;68250;43.514;1.494;2023-04-19T14:32:39;4.50;;;1.00;;
78873;SDS011;68250;43.514;1.494;2023-04-19T14:35:05;3.28;;;1.20;;
78873;SDS011;68250;43.514;1.494;2023-04-19T14:37:32;5.27;;;1.20;;
78873;SDS011;68250;43.514;1.494;2023-04-19T14:39:58;4.55;;;0.93;;
78873;SDS011;68250;43.514;1.494;2023-04-19T14:42:24;3.60;;;1.10;;
78873;SDS011;68250;43.514;1.494;2023-04-19T14:44:50;4.70;;;1.30;;
78873;SDS011;68250;43.514;1.494;2023-04-19T14:47:16;4.70;;;1.30;;
78873;SDS011;68250;43.514;1.494;2023-04-19T14:49:41;6.23;;;1.10;;
78873;SDS011;68250;43.514;1.494;2023-04-19T14:52:07;5.37;;;1.00;;
78873;SDS011;68250;43.514;1.494;2023-04-19T14:54:32;4.15;;;1.10;;